Time;durP1;ratioP1;P1;durP2;ratioP2;P2;SDS_P1;SDS_P2;PMS_P1;PMS_P2;Temp;Humidity;BMP_temperature;BMP_pressure;BME280_temperature;BME280_humidity;BME280_pressure;Samples;Min_cycle;Max_cycle;Signal;HPM_P1;HPM_P2
2022/08/07 00:00:31;;;;;;;7.10;4.20;;;;;;;15.66;70.12;102663.75;5006606;28;20032;-43
2022/08/07 00:02:56;;;;;;;7.50;3.65;;;;;;;15.67;69.69;102663.59;4992595;28;20113;-42
2022/08/07 00:05:22;;;;;;;9.80;4.00;;;;;;;15.68;69.35;102659.00;4991824;28;20034;-45
2022/08/07 00:07:47;;;;;;;7.18;3.53;;;;;;;15.62;69.40;102657.81;4991552;28;20030;-46
2022/08/07 00:10:13;;;;;;;5.90;3.92;;;;;;;15.65;69.43;102651.19;4990122;28;20037;-44
2022/08/07 00:12:38;;;;;;;9.95;3.20;;;;;;;15.63;69.17;102655.94;4964083;28;20045;-46
2022/08/07 00:15:04;;;;;;;6.68;3.63;;;;;;;15.61;69.53;102657.97;4992587;28;20466;-42
2022/08/07 00:17:30;;;;;;;7.78;3.92;;;;;;;15.57;69.79;102657.47;4974687;28;20126;-43
2022/08/07 00:19:55;;;;;;;4.63;3.20;;;;;;;15.51;69.89;102655.47;4990835;28;20113;-45
2022/08/07 00:22:21;;;;;;;6.05;3.53;;;;;;;15.44;69.74;102657.16;4992428;28;20041;-44
2022/08/07 00:24:46;;;;;;;5.40;3.30;;;;;;;15.40;70.14;102655.78;4994379;28;20022;-44
2022/08/07 00:27:12;;;;;;;5.70;3.25;;;;;;;15.34;70.31;102658.16;4991229;28;20077;-45
2022/08/07 00:29:37;;;;;;;6.28;3.55;;;;;;;15.28;70.47;102652.56;5005970;28;20041;-42
2022/08/07 00:32:04;;;;;;;5.53;3.40;;;;;;;15.26;71.14;102654.59;4988379;28;20159;-41
2022/08/07 00:34:29;;;;;;;7.97;3.10;;;;;;;15.24;71.18;102653.91;4991068;28;20039;-43
2022/08/07 00:36:55;;;;;;;5.80;3.20;;;;;;;15.22;71.01;102653.22;4990925;28;20041;-43
2022/08/07 00:39:20;;;;;;;5.97;3.30;;;;;;;15.22;71.17;102653.22;4991720;28;20082;-45
2022/08/07 00:41:54;;;;;;;8.50;3.33;;;;;;;15.18;71.44;102641.88;5005557;28;20076;-42
2022/08/07 00:44:20;;;;;;;8.85;4.43;;;;;;;15.18;71.96;102641.88;4991299;28;20058;-43
2022/08/07 00:46:45;;;;;;;4.78;3.60;;;;;;;15.13;72.01;102645.09;4989189;28;20454;-47
2022/08/07 00:49:10;;;;;;;5.35;3.30;;;;;;;15.12;72.24;102637.97;4970827;28;20034;-46
2022/08/07 00:51:36;;;;;;;8.48;3.70;;;;;;;15.13;72.43;102639.66;4991526;28;20030;-41
2022/08/07 00:54:02;;;;;;;6.43;3.30;;;;;;;15.15;72.17;102637.63;4990955;28;20018;-45
2022/08/07 00:56:30;;;;;;;4.03;3.15;;;;;;;15.13;72.25;102645.09;4973412;28;20508;-44
2022/08/07 00:58:55;;;;;;;6.07;3.47;;;;;;;15.10;72.51;102640.00;4990721;28;20109;-43
2022/08/07 01:01:22;;;;;;;4.45;3.15;;;;;;;15.09;72.82;102632.06;4993361;28;20589;-44
2022/08/07 01:03:48;;;;;;;5.50;3.13;;;;;;;15.06;72.91;102637.78;4979971;28;20018;-45
2022/08/07 01:06:15;;;;;;;5.15;3.30;;;;;;;15.01;73.10;102630.19;4990822;28;20399;-46
2022/08/07 01:08:41;;;;;;;6.00;3.13;;;;;;;14.97;73.14;102628.81;4973267;28;20065;-43
2022/08/07 01:11:07;;;;;;;9.27;3.40;;;;;;;14.97;73.18;102628.81;4970224;28;20035;-42
2022/08/07 01:13:33;;;;;;;5.80;3.35;;;;;;;14.95;73.17;102625.41;4986470;28;20116;-45
2022/08/07 01:15:58;;;;;;;6.68;3.28;;;;;;;14.92;73.36;102631.16;4971863;28;20081;-43
2022/08/07 01:18:24;;;;;;;4.55;3.05;;;;;;;14.89;73.24;102620.66;4990712;28;20117;-44
2022/08/07 01:21:00;;;;;;;6.60;3.47;;;;;;;14.85;73.55;102620.16;4989787;28;20116;-45
2022/08/07 01:23:27;;;;;;;4.30;3.08;;;;;;;14.85;73.35;102619.28;5005041;28;20092;-44
2022/08/07 01:25:53;;;;;;;11.05;3.22;;;;;;;14.82;73.59;102617.75;4973184;28;20101;-44
2022/08/07 01:28:18;;;;;;;5.85;3.25;;;;;;;14.86;73.70;102621.84;4973540;28;20428;-45
2022/08/07 01:30:44;;;;;;;5.70;3.00;;;;;;;14.85;73.55;102616.56;4990207;28;20038;-44
2022/08/07 01:33:09;;;;;;;4.93;3.28;;;;;;;14.82;73.95;102625.03;4971844;28;20026;-43
2022/08/07 01:35:35;;;;;;;7.15;3.53;;;;;;;14.80;74.07;102622.53;4991901;28;20126;-45
2022/08/07 01:38:00;;;;;;;5.22;3.22;;;;;;;14.79;74.15;102612.66;5004649;28;20026;-47
2022/08/07 01:40:26;;;;;;;7.50;3.78;;;;;;;14.79;74.11;102625.38;4972966;28;20118;-43
2022/08/07 01:42:52;;;;;;;6.78;3.95;;;;;;;14.74;74.02;102627.75;4975512;28;20049;-45
2022/08/07 01:45:20;;;;;;;9.45;3.47;;;;;;;14.66;74.10;102620.44;4975534;28;20481;-45
2022/08/07 01:47:45;;;;;;;7.90;3.53;;;;;;;14.60;74.66;102621.94;4988683;28;20057;-46
2022/08/07 01:50:11;;;;;;;5.88;3.65;;;;;;;14.56;75.18;102615.19;4971906;28;20493;-44
2022/08/07 01:52:38;;;;;;;5.13;3.65;;;;;;;14.57;75.46;102619.56;4972586;28;20061;-44
2022/08/07 01:55:04;;;;;;;7.60;3.50;;;;;;;14.56;75.66;102615.19;4990333;28;20030;-43
2022/08/07 01:57:33;;;;;;;9.55;3.20;;;;;;;14.58;75.70;102610.41;4971800;28;20042;-43
2022/08/07 02:00:06;;;;;;;5.53;3.80;;;;;;;14.59;75.85;102614.00;4968444;28;20104;-42
2022/08/07 02:02:41;;;;;;;4.35;3.53;;;;;;;14.59;75.63;102608.59;4990594;28;20042;-43
2022/08/07 02:05:09;;;;;;;14.60;3.75;;;;;;;14.56;75.63;102609.75;4974207;28;20038;-46
2022/08/07 02:07:36;;;;;;;;;;;;;;;14.54;75.91;102606.34;4986951;28;20129;-42
2022/08/07 02:10:03;;;;;;;5.88;3.95;;;;;;;14.49;75.68;102603.25;4990018;28;19910;-47
2022/08/07 02:12:30;;;;;;;9.60;4.45;;;;;;;14.42;76.30;102603.06;4989216;28;20022;-41
2022/08/07 02:14:57;;;;;;;9.03;3.70;;;;;;;14.37;76.45;102609.97;5004961;28;20473;-43
2022/08/07 02:17:23;;;;;;;6.38;3.85;;;;;;;14.34;76.98;102615.72;4989826;28;20034;-45
2022/08/07 02:19:50;;;;;;;6.03;4.30;;;;;;;14.34;76.77;102611.16;5001348;28;20580;-42
2022/08/07 02:22:18;;;;;;;9.63;3.70;;;;;;;14.31;76.53;102599.81;4982729;28;20045;-45
2022/08/07 02:24:45;;;;;;;5.05;4.00;;;;;;;14.27;76.63;102600.16;4971122;28;20072;-43
2022/08/07 02:27:13;;;;;;;9.85;4.32;;;;;;;14.21;76.78;102600.78;4991754;28;20030;-44
2022/08/07 02:29:40;;;;;;;8.60;4.22;;;;;;;14.18;76.98;102600.28;4972119;28;20230;-43
2022/08/07 02:32:07;;;;;;;5.63;3.67;;;;;;;14.14;77.54;102598.88;5003523;28;20563;-44
2022/08/07 02:34:33;;;;;;;5.90;3.70;;;;;;;14.14;77.71;102593.47;5018962;23;20472;-49
2022/08/07 02:36:59;;;;;;;8.43;3.90;;;;;;;14.15;77.36;102595.19;4986052;28;20041;-49
2022/08/07 02:39:25;;;;;;;7.60;4.20;;;;;;;14.16;77.54;102592.28;5001549;28;20049;-48
2022/08/07 02:41:51;;;;;;;7.45;4.30;;;;;;;14.17;77.35;102598.59;5009686;28;20061;-48
2022/08/07 02:44:17;;;;;;;6.68;3.70;;;;;;;14.17;77.29;102599.44;4991068;28;20038;-47
2022/08/07 02:46:46;;;;;;;7.18;3.85;;;;;;;14.21;76.98;102600.78;5007962;28;20091;-49
2022/08/07 02:49:12;;;;;;;5.13;3.60;;;;;;;14.14;76.87;102597.06;4991461;28;20065;-47
2022/08/07 02:51:38;;;;;;;5.47;3.80;;;;;;;14.11;77.67;102599.22;5007834;28;20349;-48
2022/08/07 02:54:04;;;;;;;4.82;3.33;;;;;;;14.08;78.08;102603.09;4990610;28;20041;-48
2022/08/07 02:56:31;;;;;;;7.72;3.65;;;;;;;14.07;77.57;102598.69;4980622;28;20037;-47
2022/08/07 02:58:59;;;;;;;5.55;3.97;;;;;;;14.09;77.46;102595.84;5002724;28;20037;-49
2022/08/07 03:01:26;;;;;;;5.82;3.97;;;;;;;14.09;77.27;102595.84;5005258;28;20033;-47
2022/08/07 03:03:51;;;;;;;8.90;3.92;;;;;;;14.07;77.20;102590.56;5007337;28;20026;-49
2022/08/07 03:06:18;;;;;;;8.43;4.30;;;;;;;14.05;77.35;102592.59;4984110;28;20027;-48
2022/08/07 03:08:43;;;;;;;6.85;4.40;;;;;;;14.02;77.66;102591.06;4992167;28;20469;-47
2022/08/07 03:11:09;;;;;;;5.07;4.00;;;;;;;13.97;77.78;102587.13;4995042;28;20069;-49
2022/08/07 03:13:34;;;;;;;5.63;3.95;;;;;;;13.94;78.04;102593.72;4991839;28;20029;-48
2022/08/07 03:16:00;;;;;;;8.73;3.85;;;;;;;13.92;78.08;102597.59;5010136;28;20053;-48
2022/08/07 03:18:26;;;;;;;7.30;3.95;;;;;;;13.94;78.21;102592.88;5010010;28;20847;-50
2022/08/07 03:20:52;;;;;;;7.30;4.10;;;;;;;13.92;78.04;102590.31;4993899;28;20526;-50
2022/08/07 03:23:18;;;;;;;7.35;4.03;;;;;;;13.89;78.02;102578.97;5004769;28;20136;-48
2022/08/07 03:25:44;;;;;;;7.20;4.13;;;;;;;13.89;77.82;102578.97;4990028;28;20438;-47
2022/08/07 03:28:12;;;;;;;7.80;4.05;;;;;;;13.89;78.08;102581.69;4995239;28;20033;-49
2022/08/07 03:30:38;;;;;;;4.55;3.60;;;;;;;13.90;78.52;102583.38;4995307;28;20105;-48
2022/08/07 03:33:04;;;;;;;5.90;3.97;;;;;;;13.92;78.54;102592.19;5010344;28;20030;-50
2022/08/07 03:35:30;;;;;;;4.85;3.35;;;;;;;13.92;78.24;102589.47;5011580;28;20061;-52
2022/08/07 03:38:00;;;;;;;8.55;3.92;;;;;;;13.84;78.21;102584.88;5008058;28;20033;-51
2022/08/07 03:40:26;;;;;;;5.20;3.63;;;;;;;13.80;78.38;102576.25;5011798;28;20388;-52
2022/08/07 03:42:52;;;;;;;5.22;3.80;;;;;;;13.78;78.57;102575.53;4991515;28;20025;-50
2022/08/07 03:45:19;;;;;;;7.80;3.85;;;;;;;13.78;79.05;102577.41;4993786;28;20159;-49
2022/08/07 03:47:44;;;;;;;6.82;3.90;;;;;;;13.78;78.96;102570.13;4990281;28;20040;-49
2022/08/07 03:50:10;;;;;;;6.15;3.50;;;;;;;13.80;78.68;102573.53;5011172;28;20342;-51
2022/08/07 03:52:36;;;;;;;4.32;3.53;;;;;;;13.78;78.60;102567.44;4974802;28;20085;-48
2022/08/07 03:55:02;;;;;;;5.03;3.55;;;;;;;13.75;78.70;102565.03;5002081;28;20034;-48
2022/08/07 03:57:29;;;;;;;5.15;3.58;;;;;;;13.70;78.55;102574.66;5007141;28;20030;-47
2022/08/07 03:59:54;;;;;;;7.75;4.00;;;;;;;13.64;79.24;102573.44;5009975;28;20029;-48
2022/08/07 04:02:21;;;;;;;7.60;3.83;;;;;;;13.61;79.31;102565.63;4992736;28;20034;-49
2022/08/07 04:04:46;;;;;;;8.55;3.78;;;;;;;13.53;79.43;102570.97;5008623;28;20022;-48
2022/08/07 04:07:16;;;;;;;8.90;4.40;;;;;;;13.51;79.85;102573.88;4987795;28;20374;-49
2022/08/07 04:09:41;;;;;;;5.55;3.55;;;;;;;13.52;80.18;102578.25;4983468;28;20362;-46
2022/08/07 04:12:07;;;;;;;9.02;4.30;;;;;;;13.52;80.11;102578.25;4999610;28;20037;-49
2022/08/07 04:14:33;;;;;;;7.68;4.40;;;;;;;13.52;80.29;102580.13;5000974;28;20036;-49
2022/08/07 04:16:59;;;;;;;7.28;4.40;;;;;;;13.54;80.43;102578.94;4991668;28;20025;-48
2022/08/07 04:19:25;;;;;;;9.32;4.95;;;;;;;13.53;80.09;102576.41;4993571;28;20409;-47
2022/08/07 04:21:51;;;;;;;8.85;3.83;;;;;;;13.52;80.05;102572.84;4991811;28;20086;-50
2022/08/07 04:24:17;;;;;;;7.50;4.20;;;;;;;13.54;80.31;102570.84;4993739;28;20061;-48
2022/08/07 04:26:42;;;;;;;7.43;3.88;;;;;;;13.53;80.02;102569.16;4992408;28;20083;-47
2022/08/07 04:29:10;;;;;;;6.50;3.88;;;;;;;13.50;79.90;102574.84;5008769;28;20476;-47
2022/08/07 04:31:38;;;;;;;;;;;;;;;13.49;80.04;102577.75;5011523;28;20037;-48
2022/08/07 04:34:05;;;;;;;8.27;4.28;;;;;;;13.49;80.00;102583.16;5011113;28;19924;-50
2022/08/07 04:36:31;;;;;;;8.50;4.28;;;;;;;13.54;80.23;102591.63;4986729;28;20110;-46
2022/08/07 04:38:56;;;;;;;12.15;4.15;;;;;;;13.63;80.09;102593.38;5008777;28;20033;-48
2022/08/07 04:41:22;;;;;;;9.20;4.00;;;;;;;13.65;79.65;102588.66;4992635;28;20089;-49
2022/08/07 04:43:47;;;;;;;8.88;4.18;;;;;;;13.71;79.83;102595.28;5011840;28;20022;-50
2022/08/07 04:46:45;;;;;;;6.70;4.38;;;;;;;13.70;79.82;102597.16;4992542;28;20080;-48
2022/08/07 04:49:14;;;;;;;;;;;;;;;13.73;80.30;102593.28;4994372;28;20536;-50
2022/08/07 04:52:02;;;;;;;8.75;4.07;;;;;;;13.78;80.36;102594.50;4991816;28;19940;-48
2022/08/07 04:54:59;;;;;;;7.13;3.97;;;;;;;13.86;79.90;102599.09;4964421;28;20045;-52
2022/08/07 04:57:43;;;;;;;7.85;4.07;;;;;;;13.92;80.19;102605.72;5008296;28;20050;-47
2022/08/07 05:00:11;;;;;;;7.70;3.90;;;;;;;13.97;80.22;102598.81;5008123;28;20117;-50
2022/08/07 05:02:43;;;;;;;5.40;3.33;;;;;;;14.08;80.19;102603.09;5009135;28;20365;-49
2022/08/07 05:05:21;;;;;;;6.85;3.97;;;;;;;14.07;79.35;102604.13;5009081;28;20029;-46
2022/08/07 05:07:51;;;;;;;12.88;4.10;;;;;;;14.11;79.87;102607.34;5010436;28;20042;-49
2022/08/07 05:10:30;;;;;;;7.65;4.30;;;;;;;14.16;80.33;102608.53;5008982;28;20034;-48
2022/08/07 05:13:03;;;;;;;8.77;3.72;;;;;;;14.28;79.95;102606.41;4998254;28;20033;-47
2022/08/07 05:15:36;;;;;;;5.45;3.72;;;;;;;14.34;78.82;102604.91;4975974;28;20099;-49
2022/08/07 05:18:08;;;;;;;5.30;3.58;;;;;;;14.41;78.63;102600.53;5005980;28;20433;-49
2022/08/07 05:20:39;;;;;;;5.18;3.60;;;;;;;14.53;79.12;102604.66;4993135;28;20477;-49
2022/08/07 05:23:15;;;;;;;10.75;3.90;;;;;;;14.64;78.95;102601.66;4990089;28;20538;-47
2022/08/07 05:25:41;;;;;;;8.73;3.60;;;;;;;14.76;79.14;102604.03;4993271;28;20033;-50
2022/08/07 05:28:08;;;;;;;9.88;4.00;;;;;;;14.82;78.44;102603.34;4991344;28;20053;-49
2022/08/07 05:30:34;;;;;;;7.03;3.88;;;;;;;14.95;78.28;102603.72;5010685;28;20121;-48
2022/08/07 05:33:00;;;;;;;7.43;4.20;;;;;;;15.09;77.88;102616.63;4988655;28;20166;-50
2022/08/07 05:35:26;;;;;;;9.27;4.40;;;;;;;15.23;76.94;102622.38;4990608;28;20061;-49
2022/08/07 05:37:52;;;;;;;10.68;3.85;;;;;;;15.37;76.59;102619.81;4991754;28;20030;-46
2022/08/07 05:40:17;;;;;;;5.50;3.72;;;;;;;15.52;76.29;102621.88;5009817;28;20038;-46
2022/08/07 05:42:45;;;;;;;5.72;4.03;;;;;;;15.66;75.59;102617.59;4992245;28;20129;-47
2022/08/07 05:45:10;;;;;;;8.18;3.65;;;;;;;15.80;75.11;102615.06;5010958;28;20113;-49
2022/08/07 05:47:36;;;;;;;4.85;3.50;;;;;;;15.94;74.60;102608.06;5008751;28;20377;-48
2022/08/07 05:50:02;;;;;;;4.20;3.28;;;;;;;16.07;74.14;102610.25;4992062;28;20037;-48
2022/08/07 05:52:28;;;;;;;7.75;3.40;;;;;;;16.15;73.07;102606.66;5008732;28;20132;-51
2022/08/07 05:54:53;;;;;;;8.50;3.38;;;;;;;16.26;72.40;102608.13;5010273;28;20030;-49
2022/08/07 05:57:18;;;;;;;11.50;4.10;;;;;;;16.39;71.84;102613.84;5008883;28;20034;-49
2022/08/07 05:59:45;;;;;;;5.65;2.90;;;;;;;16.62;71.00;102609.28;5008397;28;20032;-50
2022/08/07 06:02:13;;;;;;;3.72;2.95;;;;;;;17.13;70.23;102614.25;4992635;28;20145;-49
2022/08/07 06:04:39;;;;;;;;;;;;;;;17.70;67.92;102621.06;4994276;28;20025;-49
2022/08/07 06:07:04;;;;;;;3.45;2.40;;;;;;;18.53;64.59;102619.06;5010171;28;20426;-48
2022/08/07 06:09:34;;;;;;;6.28;2.55;;;;;;;19.68;61.85;102624.44;5009573;28;20091;-49
2022/08/07 06:11:59;;;;;;;4.38;2.78;;;;;;;20.47;57.20;102622.34;4981170;28;20445;-49
2022/08/07 06:14:25;;;;;;;4.68;2.90;;;;;;;21.52;53.71;102631.00;5009046;28;20026;-49
2022/08/07 06:16:50;;;;;;;6.03;3.28;;;;;;;22.32;51.12;102628.94;5008939;28;20033;-49
2022/08/07 06:19:17;;;;;;;3.78;2.80;;;;;;;23.19;48.61;102634.81;5011679;28;20051;-48
2022/08/07 06:21:44;;;;;;;6.80;3.40;;;;;;;24.02;45.27;102630.91;5011790;28;20022;-50
2022/08/07 06:24:09;;;;;;;5.15;3.67;;;;;;;24.48;44.09;102635.03;5011278;28;20163;-47
2022/08/07 06:26:38;;;;;;;5.88;3.85;;;;;;;24.17;44.36;102634.13;5010076;28;20030;-48
2022/08/07 06:29:03;;;;;;;7.55;4.38;;;;;;;23.64;45.76;102634.63;4994825;28;20037;-50
2022/08/07 06:31:29;;;;;;;10.93;4.97;;;;;;;23.56;46.01;102640.41;5009021;28;20034;-49
2022/08/07 06:33:54;;;;;;;9.77;5.55;;;;;;;23.27;46.17;102630.94;5010498;28;20128;-50
2022/08/07 06:36:20;;;;;;;10.90;5.40;;;;;;;24.05;44.58;102633.19;5011910;28;20409;-47
2022/08/07 06:38:45;;;;;;;8.23;5.40;;;;;;;23.22;46.82;102639.84;5010283;28;20396;-50
2022/08/07 06:41:21;;;;;;;9.48;5.65;;;;;;;23.00;46.59;102634.72;5010066;28;20447;-49
2022/08/07 06:43:47;;;;;;;12.70;6.60;;;;;;;23.61;44.85;102646.09;5014527;28;20444;-47
2022/08/07 06:46:14;;;;;;;11.75;6.13;;;;;;;24.57;43.11;102647.41;5016606;28;20029;-49
2022/08/07 06:48:39;;;;;;;13.38;6.13;;;;;;;25.48;41.17;102644.56;5015927;28;20029;-49
2022/08/07 06:51:07;;;;;;;15.20;6.38;;;;;;;24.95;41.36;102644.31;5013919;28;20571;-48
2022/08/07 06:53:35;;;;;;;13.13;6.18;;;;;;;24.88;42.26;102639.97;4997020;28;20382;-47
2022/08/07 06:56:02;;;;;;;8.48;5.40;;;;;;;26.36;39.00;102637.22;4992858;28;20034;-49
2022/08/07 06:58:28;;;;;;;;;;;;;;;27.23;37.01;102650.78;5001318;28;20036;-49
2022/08/07 07:00:53;;;;;;;7.93;4.47;;;;;;;27.33;36.61;102645.44;4999724;28;19925;-46
2022/08/07 07:03:18;;;;;;;10.13;4.80;;;;;;;27.33;36.62;102650.97;5004743;28;20080;-46
2022/08/07 07:05:44;;;;;;;11.93;5.00;;;;;;;27.69;35.92;102643.22;5023215;28;20034;-47
2022/08/07 07:08:11;;;;;;;10.90;6.07;;;;;;;28.52;34.28;102651.56;5007477;28;20034;-48
2022/08/07 07:10:37;;;;;;;9.80;5.38;;;;;;;27.94;35.06;102644.72;5019208;28;20029;-48
2022/08/07 07:13:12;;;;;;;8.90;4.55;;;;;;;28.24;34.04;102639.56;5019652;28;20038;-49
2022/08/07 07:15:42;;;;;;;12.25;4.85;;;;;;;28.14;34.35;102639.44;4997001;28;20084;-46
2022/08/07 07:18:13;;;;;;;8.50;3.97;;;;;;;28.54;33.75;102643.00;4997976;28;20026;-49
2022/08/07 07:20:46;;;;;;;6.25;3.95;;;;;;;29.29;32.58;102649.59;5016194;28;20037;-48
2022/08/07 07:23:12;;;;;;;13.73;4.38;;;;;;;30.35;30.10;102651.38;4999212;28;20084;-49
2022/08/07 07:25:38;;;;;;;12.30;4.20;;;;;;;29.58;30.73;102646.47;5016172;28;20083;-51
2022/08/07 07:28:25;;;;;;;10.20;4.63;;;;;;;29.08;31.76;102643.84;5017885;28;20307;-50
2022/08/07 07:30:52;;;;;;;;;;;;;;;29.46;31.38;102650.25;5015569;28;20052;-48
2022/08/07 07:33:18;;;;;;;7.38;3.00;;;;;;;30.34;28.84;102646.94;4999843;28;19909;-48
2022/08/07 07:35:47;;;;;;;6.40;2.83;;;;;;;30.22;29.24;102640.75;4999657;28;20449;-50
2022/08/07 07:38:13;;;;;;;7.65;2.85;;;;;;;29.84;29.93;102640.03;4995155;28;20034;-49
2022/08/07 07:40:39;;;;;;;8.70;3.10;;;;;;;29.79;29.57;102642.75;4997707;28;20119;-49
2022/08/07 07:43:05;;;;;;;;;;;;;;;30.03;29.23;102639.56;4999495;28;20022;-48
2022/08/07 07:45:30;;;;;;;6.93;3.40;;;;;;;29.47;30.34;102635.31;5014382;28;20358;-52
2022/08/07 07:47:57;;;;;;;11.50;3.83;;;;;;;29.27;30.88;102635.16;4987783;28;20109;-51
2022/08/07 07:50:23;;;;;;;;;;;;;;;29.61;30.33;102624.56;4991074;28;20114;-51
2022/08/07 07:52:49;;;;;;;6.23;3.30;;;;;;;29.46;30.10;102627.25;5015575;28;20261;-50
2022/08/07 07:55:17;;;;;;;7.13;3.50;;;;;;;29.21;30.87;102630.66;5012493;28;20030;-48
2022/08/07 07:57:43;;;;;;;11.77;3.75;;;;;;;29.17;30.92;102630.34;5017884;28;20033;-48
2022/08/07 08:00:10;;;;;;;12.73;3.90;;;;;;;29.24;30.96;102633.75;4978433;28;20141;-48
2022/08/07 08:02:37;;;;;;;11.40;3.75;;;;;;;29.85;30.08;102630.56;4986873;28;20484;-49
2022/08/07 08:05:04;;;;;;;11.02;3.70;;;;;;;30.03;29.17;102625.69;4996497;28;20028;-48
2022/08/07 08:07:31;;;;;;;7.32;3.58;;;;;;;30.16;29.27;102619.63;5014520;28;20449;-51
2022/08/07 08:09:57;;;;;;;8.48;2.90;;;;;;;30.89;27.56;102616.00;4995198;28;20161;-50
2022/08/07 08:12:22;;;;;;;8.70;3.50;;;;;;;30.67;27.71;102617.00;4994741;28;20108;-50
2022/08/07 08:14:48;;;;;;;6.30;3.10;;;;;;;30.62;27.86;102614.22;5012737;28;20313;-50
2022/08/07 08:17:14;;;;;;;9.50;3.27;;;;;;;31.33;26.97;102612.63;5014177;28;20025;-48
2022/08/07 08:19:40;;;;;;;7.40;2.70;;;;;;;31.42;26.13;102616.56;5013651;28;20029;-50
2022/08/07 08:27:38;;;;;;;7.60;2.85;;;;;;;32.17;25.92;102618.56;5004709;28;20103;-49
2022/08/07 08:30:11;;;;;;;8.38;3.55;;;;;;;31.71;25.71;102613.97;5012771;28;20127;-47
2022/08/07 08:32:40;;;;;;;11.48;3.22;;;;;;;31.53;25.74;102620.16;4995131;28;20096;-47
2022/08/07 08:35:07;;;;;;;12.48;3.22;;;;;;;31.40;25.97;102616.00;4994557;28;20448;-50
2022/08/07 08:37:35;;;;;;;9.02;3.28;;;;;;;31.53;25.99;102620.16;4991756;28;20052;-48
2022/08/07 08:40:01;;;;;;;11.00;3.38;;;;;;;31.65;25.70;102613.16;5012610;28;20022;-51
2022/08/07 08:42:32;;;;;;;8.52;3.08;;;;;;;31.17;26.09;102607.06;4992072;28;20022;-51
2022/08/07 08:45:04;;;;;;;11.15;3.40;;;;;;;31.17;26.94;102607.06;4994274;28;20022;-48
2022/08/07 08:48:19;;;;;;;11.98;3.55;;;;;;;31.29;26.23;102609.56;4993258;28;20408;-49
2022/08/07 08:50:53;;;;;;;9.90;3.20;;;;;;;32.06;24.83;102613.03;4965134;28;20053;-50
2022/08/07 08:53:37;;;;;;;11.05;3.17;;;;;;;31.28;25.97;102607.88;4984383;28;20481;-50
2022/08/07 08:56:05;;;;;;;10.05;3.30;;;;;;;30.98;26.83;102608.75;4995111;28;20025;-49
2022/08/07 08:58:48;;;;;;;8.93;3.25;;;;;;;31.80;26.09;102605.88;4994656;28;20056;-48
2022/08/07 09:01:24;;;;;;;11.50;3.22;;;;;;;31.50;25.78;102604.84;4992499;28;20022;-48
2022/08/07 09:04:09;;;;;;;8.80;3.65;;;;;;;31.97;26.00;102614.78;4993834;28;20046;-49
2022/08/07 09:06:47;;;;;;;8.43;3.10;;;;;;;33.36;24.34;102607.19;5011397;28;20022;-51
2022/08/07 09:09:38;;;;;;;12.63;3.80;;;;;;;33.20;24.90;102608.44;4994634;28;20049;-51
2022/08/07 09:12:44;;;;;;;9.00;3.20;;;;;;;33.17;24.79;102597.88;4993664;28;20102;-51
2022/08/07 09:15:15;;;;;;;7.45;3.05;;;;;;;33.47;24.42;102601.47;5011941;28;20068;-48
2022/08/07 09:18:14;;;;;;;13.35;2.97;;;;;;;33.16;25.29;102610.16;5011619;28;20121;-49
2022/08/07 09:21:03;;;;;;;11.32;3.55;;;;;;;32.61;25.17;102606.66;4993949;28;20080;-51
2022/08/07 09:23:49;;;;;;;10.15;3.22;;;;;;;32.82;25.74;102608.16;4994453;28;20425;-48
2022/08/07 09:26:32;;;;;;;;;;;;;;;33.08;25.24;102616.38;4994119;28;20381;-51
2022/08/07 09:29:16;;;;;;;8.45;3.10;;;;;;;32.78;25.58;102609.88;4993977;28;20005;-48
2022/08/07 09:32:14;;;;;;;9.77;2.92;;;;;;;32.40;25.32;102606.75;4993775;28;20053;-50
2022/08/07 09:35:16;;;;;;;13.15;3.30;;;;;;;32.75;24.97;102605.69;4950623;28;20133;-49
2022/08/07 09:38:10;;;;;;;8.27;3.00;;;;;;;32.11;25.61;102599.09;5010913;28;20032;-49
2022/08/07 09:40:52;;;;;;;7.82;3.17;;;;;;;32.48;25.66;102606.16;4977144;28;20042;-51
2022/08/07 09:43:32;;;;;;;6.15;2.78;;;;;;;32.63;25.33;102601.63;5010135;28;20026;-49
2022/08/07 09:46:09;;;;;;;9.77;2.50;;;;;;;32.17;25.96;102601.84;5011759;28;20460;-52
2022/08/07 09:48:50;;;;;;;7.25;3.00;;;;;;;31.91;25.87;102600.00;5012894;28;20050;-50
2022/08/07 09:51:37;;;;;;;9.82;2.63;;;;;;;32.32;26.21;102599.00;4994154;28;20022;-50
2022/08/07 09:54:05;;;;;;;11.95;3.50;;;;;;;33.13;24.67;102596.81;4993877;28;20029;-50
2022/08/07 09:56:49;;;;;;;8.80;3.38;;;;;;;32.58;25.27;102592.16;5011312;28;20029;-50
2022/08/07 09:59:32;;;;;;;15.35;3.15;;;;;;;32.09;25.59;102589.34;5011255;28;20389;-51
2022/08/07 10:02:19;;;;;;;8.80;2.63;;;;;;;32.32;25.21;102590.63;5010895;28;20021;-50
2022/08/07 10:04:44;;;;;;;9.85;2.10;;;;;;;32.22;25.24;102585.94;5008814;28;20062;-49
2022/08/07 10:07:21;;;;;;;11.03;2.57;;;;;;;32.10;24.97;102580.72;5010510;28;20053;-52
2022/08/07 10:10:17;;;;;;;10.30;2.22;;;;;;;32.06;24.52;102582.41;5010073;28;20017;-50
2022/08/07 10:12:51;;;;;;;6.10;2.40;;;;;;;32.20;25.07;102568.69;5010096;28;20543;-49
2022/08/07 10:15:35;;;;;;;10.80;2.50;;;;;;;32.31;24.66;102580.63;4992822;28;20050;-50
2022/08/07 10:18:20;;;;;;;9.70;2.53;;;;;;;32.47;24.06;102567.44;5005822;28;20547;-51
2022/08/07 10:21:04;;;;;;;9.07;2.35;;;;;;;32.84;22.62;102568.84;5007717;28;20042;-50
2022/08/07 10:23:38;;;;;;;5.82;2.15;;;;;;;33.69;21.87;102568.31;5007930;28;20107;-49
2022/08/07 10:26:41;;;;;;;7.55;2.25;;;;;;;33.02;22.54;102568.16;5005323;28;20029;-51
2022/08/07 10:29:44;;;;;;;7.10;2.30;;;;;;;32.20;23.43;102568.69;4986527;28;20057;-48
2022/08/07 10:32:18;;;;;;;11.90;2.50;;;;;;;32.70;23.74;102565.88;5007496;28;20038;-49
2022/08/07 10:35:02;;;;;;;5.57;2.20;;;;;;;33.10;22.19;102558.31;5006085;28;20100;-51
2022/08/07 10:37:35;;;;;;;8.05;1.92;;;;;;;32.89;22.13;102557.63;5012564;28;20546;-51
2022/08/07 10:40:37;;;;;;;3.13;1.80;;;;;;;33.19;22.28;102559.34;4991139;28;20113;-50
2022/08/07 10:43:22;;;;;;;4.80;1.42;;;;;;;33.71;19.56;102552.09;4988975;28;20056;-50
2022/08/07 10:45:49;;;;;;;5.45;1.77;;;;;;;33.21;21.21;102548.72;5005134;28;20432;-49
2022/08/07 10:48:17;;;;;;;6.30;2.13;;;;;;;31.92;22.83;102539.56;4989903;28;20052;-49
2022/08/07 10:50:46;;;;;;;5.93;1.80;;;;;;;31.43;22.79;102534.72;5007472;28;20038;-47
2022/08/07 10:53:35;;;;;;;8.98;2.10;;;;;;;32.51;22.23;102540.66;4981649;28;20517;-49
2022/08/07 10:56:08;;;;;;;2.95;1.55;;;;;;;33.19;20.08;102539.81;4984249;28;20152;-49
2022/08/07 10:58:34;;;;;;;6.63;1.52;;;;;;;33.10;20.66;102541.56;5003275;28;20165;-48
2022/08/07 11:01:10;;;;;;;10.00;2.00;;;;;;;32.93;21.53;102530.84;5006842;28;20037;-48
2022/08/07 11:03:44;;;;;;;6.72;2.13;;;;;;;32.69;22.44;102539.13;4996647;28;20050;-49
2022/08/07 11:06:33;;;;;;;7.53;2.47;;;;;;;32.38;23.32;102530.97;4990374;28;20041;-49
2022/08/07 11:09:06;;;;;;;11.15;3.05;;;;;;;32.33;22.87;102537.44;5008066;28;20116;-51
2022/08/07 11:11:35;;;;;;;9.45;3.03;;;;;;;32.76;22.60;102534.06;4988677;28;20022;-49
2022/08/07 11:14:10;;;;;;;8.02;3.25;;;;;;;31.90;24.17;102530.66;4988268;28;20038;-50
2022/08/07 11:16:42;;;;;;;12.05;3.70;;;;;;;31.71;24.64;102522.13;4989809;28;20029;-53
2022/08/07 11:19:19;;;;;;;10.10;3.50;;;;;;;31.94;24.18;102523.44;4989892;28;20063;-51
2022/08/07 11:22:05;;;;;;;8.88;3.72;;;;;;;31.79;24.44;102529.06;5005040;28;20315;-48
2022/08/07 11:24:39;;;;;;;7.10;3.97;;;;;;;31.81;25.51;102519.28;5009069;28;20080;-49
2022/08/07 11:27:20;;;;;;;7.57;3.28;;;;;;;32.19;24.49;102521.63;5006799;28;20029;-49
2022/08/07 11:30:03;;;;;;;8.25;3.42;;;;;;;31.77;24.66;102525.72;4991186;28;20505;-50
2022/08/07 11:32:57;;;;;;;6.53;3.40;;;;;;;31.26;25.48;102521.94;5010901;28;20032;-48
2022/08/07 11:35:25;;;;;;;6.78;3.50;;;;;;;31.57;24.87;102513.56;5009152;28;20080;-49
2022/08/07 11:38:15;;;;;;;6.88;3.42;;;;;;;31.61;24.81;102517.41;4985895;28;20128;-50
2022/08/07 11:40:48;;;;;;;15.07;3.60;;;;;;;32.30;23.39;102524.03;4993207;28;20220;-48
2022/08/07 11:43:26;;;;;;;10.88;3.40;;;;;;;32.66;23.57;102514.63;4993195;28;20053;-48
2022/08/07 11:46:22;;;;;;;7.57;3.90;;;;;;;32.35;24.18;102512.03;4992491;28;20040;-51
2022/08/07 11:49:25;;;;;;;15.30;3.42;;;;;;;31.73;24.56;102497.63;4991071;28;20084;-49